Time;durP1;ratioP1;P1;durP2;ratioP2;P2;SDS_P1;SDS_P2;PMS_P1;PMS_P2;Temp;Humidity;BMP_temperature;BMP_pressure;BME280_temperature;BME280_humidity;BME280_pressure;Samples;Min_cycle;Max_cycle;Signal;HPM_P1;HPM_P2
2022/05/29 00:02:09;;;;;;;7.88;2.00;;;;;;;-144.47;54.40;53372.53;5001143;28;20450;-66
2022/05/29 00:04:36;;;;;;;8.82;2.63;;;;;;;-144.47;53.99;53370.53;4995591;28;20026;-67
2022/05/29 00:07:03;;;;;;;12.65;2.40;;;;;;;-144.47;53.73;53370.53;5007610;28;20034;-65
2022/05/29 00:09:33;;;;;;;8.50;1.90;;;;;;;-144.47;53.58;53314.91;4976586;28;20030;-67
2022/05/29 00:11:59;;;;;;;10.75;2.40;;;;;;;-144.47;53.67;53344.72;5003637;28;20022;-67
2022/05/29 00:14:25;;;;;;;14.98;2.80;;;;;;;-144.47;53.80;53358.63;4988063;28;20014;-66
2022/05/29 00:16:50;;;;;;;11.57;2.13;;;;;;;-144.47;53.86;53362.59;4989796;28;20081;-65
2022/05/29 00:19:16;;;;;;;13.15;2.20;;;;;;;-144.47;54.10;53360.63;5002216;28;20030;-66
2022/05/29 00:21:41;;;;;;;19.23;2.88;;;;;;;-144.47;54.38;53308.97;5002979;28;20040;-65
2022/05/29 00:24:07;;;;;;;9.07;2.30;;;;;;;-144.47;54.50;53356.63;4997886;28;20373;-65
2022/05/29 00:26:33;;;;;;;20.02;2.97;;;;;;;-144.47;54.53;53352.66;4998815;28;20045;-66
2022/05/29 00:28:59;;;;;;;16.83;2.90;;;;;;;-144.47;54.83;53376.50;5003454;28;20027;-67
2022/05/29 00:31:24;;;;;;;15.38;3.83;;;;;;;-144.47;55.07;53378.50;4994396;28;20014;-65
2022/05/29 00:33:49;;;;;;;13.13;3.10;;;;;;;-144.47;55.28;53340.75;5005924;28;20076;-65
2022/05/29 00:36:15;;;;;;;22.33;2.95;;;;;;;-144.47;55.63;53364.59;4992486;28;20080;-65
2022/05/29 00:38:43;;;;;;;9.43;2.78;;;;;;;-144.47;55.75;53330.81;4989484;28;20046;-66
2022/05/29 00:41:21;;;;;;;19.05;3.65;;;;;;;-144.47;56.29;53356.63;4985934;28;20022;-66
2022/05/29 00:44:09;;;;;;;14.95;4.05;;;;;;;-144.47;56.46;53364.59;5001580;28;20025;-65
2022/05/29 00:46:35;;;;;;;8.50;3.78;;;;;;;-144.47;57.21;53336.78;4998744;28;20070;-65
2022/05/29 00:49:08;;;;;;;13.80;2.90;;;;;;;-144.47;56.80;53328.81;4999834;28;20106;-67
2022/05/29 00:51:39;;;;;;;11.77;3.15;;;;;;;-144.47;56.94;53364.59;5004966;28;20069;-66
2022/05/29 00:54:06;;;;;;;14.50;3.03;;;;;;;-144.47;56.89;53360.63;4991856;28;20398;-65
2022/05/29 00:56:33;;;;;;;15.95;3.03;;;;;;;-144.47;57.19;53380.47;4991755;28;20549;-67
2022/05/29 00:59:00;;;;;;;11.32;3.30;;;;;;;-144.47;57.16;53344.72;5004978;28;20026;-65
2022/05/29 01:01:27;;;;;;;10.73;2.90;;;;;;;-144.47;57.22;53380.47;4991649;28;20092;-67
2022/05/29 01:03:54;;;;;;;24.02;3.58;;;;;;;-144.47;57.68;53370.53;4992153;28;20078;-66
2022/05/29 01:06:19;;;;;;;19.15;3.20;;;;;;;-144.47;58.23;53386.44;4999429;28;20049;-65
2022/05/29 01:08:45;;;;;;;10.55;2.55;;;;;;;-144.47;57.88;53408.28;5009088;28;20481;-66
2022/05/29 01:11:20;;;;;;;12.60;2.28;;;;;;;-144.47;58.17;53362.59;4991603;28;20092;-65
2022/05/29 01:14:16;;;;;;;12.80;2.45;;;;;;;-144.47;58.55;53402.31;4992046;28;20030;-66
2022/05/29 01:17:11;;;;;;;12.18;2.22;;;;;;;-144.47;58.93;53348.69;5004602;28;20026;-65
2022/05/29 01:19:58;;;;;;;9.20;1.95;;;;;;;-144.47;59.30;53378.50;4992660;28;20037;-68
2022/05/29 01:22:29;;;;;;;16.42;3.22;;;;;;;-144.47;59.10;53360.63;5004698;28;20023;-68
2022/05/29 01:25:27;;;;;;;14.02;3.55;;;;;;;-144.47;59.63;53424.19;4992587;28;20034;-66
2022/05/29 01:28:12;;;;;;;12.47;2.70;;;;;;;-144.47;60.29;53348.69;4993177;28;20176;-64
2022/05/29 01:30:51;;;;;;;12.88;2.45;;;;;;;-144.47;61.62;53364.59;4994733;28;20030;-64
2022/05/29 01:33:16;;;;;;;;;;;;;;;-144.47;62.04;53384.44;5005314;28;20044;-67
2022/05/29 01:36:02;;;;;;;12.18;2.65;;;;;;;-144.47;62.78;53348.69;4989496;28;19910;-66
2022/05/29 01:38:42;;;;;;;12.45;2.55;;;;;;;-144.47;63.38;53394.38;4995048;28;20259;-66
2022/05/29 01:41:12;;;;;;;11.23;2.78;;;;;;;-144.47;63.91;53420.22;4990995;28;20509;-67
2022/05/29 01:43:42;;;;;;;11.38;2.85;;;;;;;-144.47;64.25;53344.72;4997895;28;20395;-64
2022/05/29 01:46:17;;;;;;;8.43;2.38;;;;;;;-144.47;64.63;53420.22;4988366;28;20072;-66
2022/05/29 01:49:20;;;;;;;19.13;3.00;;;;;;;-144.47;64.83;53416.22;5010896;28;20030;-67
2022/05/29 01:51:51;;;;;;;12.40;3.72;;;;;;;-144.47;64.97;53378.50;5002932;28;20088;-64
2022/05/29 01:54:26;;;;;;;11.07;2.83;;;;;;;-144.47;64.84;53428.16;4993319;28;20026;-65
2022/05/29 01:56:57;;;;;;;6.65;3.10;;;;;;;-144.47;65.19;53364.59;5000393;28;20525;-65
2022/05/29 01:59:29;;;;;;;13.90;3.40;;;;;;;-144.47;65.29;53404.31;4973424;28;20109;-65
2022/05/29 02:02:09;;;;;;;10.90;3.50;;;;;;;-144.47;65.16;53408.28;4990942;28;20032;-62
2022/05/29 02:04:40;;;;;;;15.00;3.35;;;;;;;-144.47;65.35;53424.19;4990942;28;20092;-63
2022/05/29 02:10:07;;;;;;;15.50;3.80;;;;;;;-144.47;65.58;53422.19;4991562;28;20458;-65
2022/05/29 02:12:35;;;;;;;13.85;4.00;;;;;;;-144.47;65.70;53404.31;4995003;28;20194;-64
2022/05/29 02:15:06;;;;;;;19.58;5.75;;;;;;;-144.47;65.92;53406.31;4990030;28;20026;-62
2022/05/29 02:17:42;;;;;;;21.08;5.10;;;;;;;-144.47;66.50;53376.50;4997021;28;20034;-66
2022/05/29 02:20:28;;;;;;;27.83;7.60;;;;;;;-144.47;66.38;53368.56;5009154;28;20527;-63
2022/05/29 02:22:59;;;;;;;21.13;5.20;;;;;;;-144.47;66.55;53418.22;4989357;28;20034;-63
2022/05/29 02:25:28;;;;;;;22.30;5.45;;;;;;;-144.47;66.66;53412.25;4988913;28;20033;-63
2022/05/29 02:28:00;;;;;;;41.92;8.30;;;;;;;-144.47;66.31;53412.25;5001724;28;20038;-65
2022/05/29 02:30:37;;;;;;;26.38;5.20;;;;;;;-144.47;66.15;53412.25;4989846;28;20394;-63
2022/05/29 02:33:28;;;;;;;20.15;5.43;;;;;;;-144.47;66.24;53414.25;4990805;28;20030;-66
2022/05/29 02:36:23;;;;;;;14.13;4.05;;;;;;;-144.47;66.24;53380.47;4990444;28;20033;-63
2022/05/29 02:39:03;;;;;;;11.10;4.38;;;;;;;-144.47;66.11;53400.34;4979525;28;20027;-65
2022/05/29 02:42:05;;;;;;;14.20;4.57;;;;;;;-144.47;65.92;53426.16;4990379;28;20022;-66
2022/05/29 02:44:37;;;;;;;20.70;4.93;;;;;;;-144.47;66.38;53410.28;4986251;28;20065;-66
2022/05/29 02:47:29;;;;;;;23.52;5.60;;;;;;;-144.47;66.52;53430.13;4990831;28;20018;-64
2022/05/29 02:50:17;;;;;;;32.85;7.10;;;;;;;-144.47;66.07;53372.53;4990097;28;20054;-65
2022/05/29 02:52:42;;;;;;;21.48;5.53;;;;;;;-144.47;65.74;53398.34;4989765;28;20141;-67
2022/05/29 02:55:08;;;;;;;22.48;6.00;;;;;;;-144.47;65.64;53396.38;4999588;28;20053;-66
2022/05/29 02:57:33;;;;;;;27.33;7.40;;;;;;;-144.47;65.24;53400.34;4993932;28;20108;-65
2022/05/29 03:00:07;;;;;;;29.38;6.35;;;;;;;-144.47;65.19;53396.38;4999069;28;20022;-64
2022/05/29 03:02:57;;;;;;;20.15;5.50;;;;;;;-144.47;64.90;53392.41;4992378;28;20517;-66
2022/05/29 03:05:44;;;;;;;33.05;5.97;;;;;;;-144.47;64.89;53404.31;4990066;28;20430;-64
2022/05/29 03:08:33;;;;;;;24.77;5.15;;;;;;;-144.47;64.61;53422.19;5000184;28;20022;-66
2022/05/29 03:11:05;;;;;;;;;;;;;;;-144.47;64.37;53360.63;5009409;28;20025;-65
2022/05/29 03:13:43;;;;;;;9.93;2.97;;;;;;;-144.47;63.83;53450.00;5004683;28;19914;-66
2022/05/29 03:16:10;;;;;;;17.20;3.35;;;;;;;-144.47;63.60;53370.53;4989964;28;20049;-66
2022/05/29 03:18:54;;;;;;;20.80;4.40;;;;;;;-144.47;63.16;53404.31;4989575;28;20030;-66
2022/05/29 03:21:22;;;;;;;20.00;3.58;;;;;;;-144.47;63.36;53414.25;4989860;28;20508;-66
2022/05/29 03:24:02;;;;;;;31.42;6.13;;;;;;;-144.47;63.08;53380.47;5001535;28;20027;-65
2022/05/29 03:26:44;;;;;;;18.55;4.53;;;;;;;-144.47;62.71;53408.28;4989115;28;20034;-65
2022/05/29 03:29:17;;;;;;;19.48;3.80;;;;;;;-144.47;63.08;53380.47;4998478;28;20026;-64
2022/05/29 03:31:44;;;;;;;16.23;4.10;;;;;;;-144.47;62.89;53416.22;4992837;28;20398;-64
2022/05/29 03:34:13;;;;;;;19.25;3.97;;;;;;;-144.47;63.09;53410.28;4999810;28;20084;-62
2022/05/29 03:36:46;;;;;;;14.15;3.67;;;;;;;-144.47;62.77;53404.31;4991406;28;20054;-65
2022/05/29 03:39:11;;;;;;;20.02;3.42;;;;;;;-144.47;62.41;53380.47;4982658;28;20481;-65
2022/05/29 03:41:43;;;;;;;9.13;2.45;;;;;;;-144.47;62.38;53376.50;4990413;28;20178;-66
2022/05/29 03:44:13;;;;;;;9.15;2.58;;;;;;;-144.47;61.90;53404.31;4988360;28;20030;-67
2022/05/29 03:46:39;;;;;;;11.20;2.83;;;;;;;-144.47;62.10;53396.38;4989360;28;20065;-67
2022/05/29 03:49:07;;;;;;;18.08;3.92;;;;;;;-144.47;61.60;53376.50;5001764;28;20046;-64
2022/05/29 03:51:32;;;;;;;10.77;2.85;;;;;;;-144.47;61.50;53412.25;5008818;28;20053;-64
2022/05/29 03:53:57;;;;;;;6.80;2.35;;;;;;;-144.47;61.14;53394.38;4996598;28;20062;-67
2022/05/29 03:56:23;;;;;;;12.57;2.70;;;;;;;-144.47;61.27;53374.50;4988950;28;20033;-63
2022/05/29 03:58:48;;;;;;;11.45;2.72;;;;;;;-144.47;61.59;53372.53;5000958;28;20374;-66
2022/05/29 04:01:13;;;;;;;12.50;2.83;;;;;;;-144.47;61.63;53404.31;4994933;28;20030;-63
2022/05/29 04:03:39;;;;;;;11.25;2.10;;;;;;;-144.47;61.21;53398.34;5013398;28;20025;-65
2022/05/29 04:06:04;;;;;;;11.48;2.53;;;;;;;-144.47;61.18;53406.31;5012675;28;20485;-63
2022/05/29 04:13:57;;;;;;;9.18;2.72;;;;;;;-144.47;60.58;53378.50;5002422;28;20075;-65
2022/05/29 04:16:23;;;;;;;11.63;3.10;;;;;;;-144.47;60.53;53394.38;4993217;28;20022;-66
2022/05/29 04:18:48;;;;;;;20.98;2.63;;;;;;;-144.47;60.78;53362.59;4992723;28;20176;-63
2022/05/29 04:21:13;;;;;;;10.07;2.75;;;;;;;-144.47;60.58;53380.47;4992848;28;20478;-65
2022/05/29 04:23:39;;;;;;;13.70;3.88;;;;;;;-144.47;60.66;53396.38;4995299;28;20030;-67
2022/05/29 04:26:04;;;;;;;13.77;3.20;;;;;;;-144.47;60.32;53368.56;5025719;22;20053;-70
2022/05/29 04:28:29;;;;;;;15.63;2.97;;;;;;;-144.47;60.27;53402.31;4991836;28;20036;-68
2022/05/29 04:30:55;;;;;;;14.20;2.72;;;;;;;-144.47;60.07;53358.63;5006509;28;20014;-70
2022/05/29 04:33:22;;;;;;;7.47;2.72;;;;;;;-144.47;60.11;53394.38;5005930;28;20026;-66
2022/05/29 04:35:52;;;;;;;10.70;3.13;;;;;;;-144.47;59.76;53392.41;4993263;28;20029;-70
2022/05/29 04:38:19;;;;;;;15.50;2.65;;;;;;;-144.47;60.17;53364.59;4992876;28;20114;-71
2022/05/29 04:40:45;;;;;;;24.92;4.35;;;;;;;-144.47;59.33;53420.22;4992797;28;20042;-68
2022/05/29 04:43:12;;;;;;;14.77;4.03;;;;;;;-144.47;59.02;53372.53;4992142;28;20029;-67
2022/05/29 04:45:40;;;;;;;11.73;2.63;;;;;;;-144.47;58.74;53376.50;5003631;28;20033;-68
2022/05/29 04:48:06;;;;;;;10.02;2.95;;;;;;;-144.47;58.70;53378.50;5008399;28;20022;-70
2022/05/29 04:50:31;;;;;;;13.63;3.60;;;;;;;-144.47;59.06;53398.34;4992991;28;20402;-67
2022/05/29 04:52:57;;;;;;;12.02;3.40;;;;;;;-144.47;58.96;53394.38;4991328;28;20056;-69
2022/05/29 04:55:22;;;;;;;13.18;3.42;;;;;;;-144.47;58.88;53354.66;4992551;28;20022;-68
2022/05/29 04:57:48;;;;;;;16.17;3.70;;;;;;;-144.47;59.08;53358.63;5010451;28;20017;-69
2022/05/29 05:00:14;;;;;;;15.68;3.03;;;;;;;-144.47;58.98;53374.50;5012015;28;20026;-68
2022/05/29 05:02:40;;;;;;;13.95;3.22;;;;;;;-144.47;58.80;53402.31;4998781;28;20076;-68
2022/05/29 05:05:05;;;;;;;15.63;2.83;;;;;;;-144.47;58.93;53368.56;5001801;28;20030;-69
2022/05/29 05:07:31;;;;;;;11.63;2.40;;;;;;;-144.47;58.31;53414.25;4992273;28;20022;-69
2022/05/29 05:09:56;;;;;;;22.50;3.67;;;;;;;-144.47;59.08;53410.28;4992593;28;20031;-71
2022/05/29 05:12:21;;;;;;;16.30;3.53;;;;;;;-144.47;59.02;53370.53;4999473;28;20081;-71
2022/05/29 05:14:47;;;;;;;8.23;2.63;;;;;;;-144.47;59.03;53398.34;5001589;28;20057;-73
2022/05/29 05:17:12;;;;;;;12.27;2.83;;;;;;;-144.47;58.75;53356.63;4995033;28;20030;-70
2022/05/29 05:19:38;;;;;;;14.18;3.20;;;;;;;-144.47;59.18;53344.72;4992108;28;20026;-69
2022/05/29 05:22:04;;;;;;;18.95;3.67;;;;;;;-144.47;58.41;53364.59;5008296;28;20038;-68
2022/05/29 05:24:30;;;;;;;13.52;2.60;;;;;;;-144.47;58.85;53400.34;5011747;28;20102;-67
2022/05/29 05:26:58;;;;;;;15.18;2.78;;;;;;;-144.47;58.08;53360.63;5005690;28;20026;-67
2022/05/29 05:29:24;;;;;;;12.27;3.03;;;;;;;-144.47;58.31;53380.47;5002229;28;20427;-69
2022/05/29 05:31:49;;;;;;;15.15;3.15;;;;;;;-144.47;58.17;53392.41;4997412;28;20460;-70
2022/05/29 05:34:15;;;;;;;14.57;2.97;;;;;;;-144.47;58.50;53402.31;5001052;28;20028;-69
2022/05/29 05:36:40;;;;;;;14.48;2.42;;;;;;;-144.47;58.57;53348.69;4995734;28;20038;-68
2022/05/29 05:39:05;;;;;;;19.08;3.03;;;;;;;-144.47;58.58;53386.44;4999852;28;20022;-68
2022/05/29 05:41:31;;;;;;;13.40;2.45;;;;;;;-144.47;60.03;53320.88;4991415;28;20084;-70
2022/05/29 05:43:56;;;;;;;15.68;3.13;;;;;;;-144.47;60.23;53358.63;4990441;28;20438;-70
2022/05/29 05:46:21;;;;;;;10.93;2.55;;;;;;;-144.47;59.82;53416.22;5004965;28;20029;-70
2022/05/29 05:48:47;;;;;;;15.10;2.95;;;;;;;-144.47;60.07;53380.47;4973953;28;20026;-68
2022/05/29 05:51:13;;;;;;;13.60;3.13;;;;;;;-144.47;60.22;53348.69;5004748;28;20022;-71
2022/05/29 05:53:41;;;;;;;19.33;3.30;;;;;;;-144.47;59.65;53324.84;5001959;28;20653;-68
2022/05/29 05:56:10;;;;;;;8.15;2.55;;;;;;;-144.47;59.10;53352.66;5011144;28;20022;-71
2022/05/29 05:58:35;;;;;;;;;;;;;;;-144.47;59.53;53366.56;5000340;28;20030;-69
2022/05/29 06:01:10;;;;;;;13.48;2.65;;;;;;;-144.47;59.59;53342.72;4991167;28;19921;-68
2022/05/29 06:03:36;;;;;;;16.20;2.72;;;;;;;-144.47;58.98;53338.75;5001179;28;20033;-70
2022/05/29 06:06:01;;;;;;;21.05;3.50;;;;;;;-144.47;58.36;53354.66;5004929;28;20122;-68
2022/05/29 06:08:27;;;;;;;10.70;2.33;;;;;;;-144.47;58.09;53392.41;4989312;28;20046;-68
2022/05/29 06:10:52;;;;;;;11.07;2.50;;;;;;;-144.47;57.31;53338.75;4990779;28;20032;-68
2022/05/29 06:13:18;;;;;;;10.98;2.60;;;;;;;-144.47;56.90;53356.63;4987629;28;20057;-70
2022/05/29 06:15:44;;;;;;;12.70;2.58;;;;;;;-144.47;56.90;53356.63;4990459;28;20023;-69
2022/05/29 06:18:10;;;;;;;17.40;3.13;;;;;;;-144.47;56.76;53374.50;4982981;28;20058;-70
2022/05/29 06:20:36;;;;;;;17.52;2.88;;;;;;;-144.47;56.81;53382.47;4988321;28;20089;-66
2022/05/29 06:23:01;;;;;;;16.02;2.97;;;;;;;-144.47;56.33;53372.53;4988872;28;20022;-68
2022/05/29 06:25:27;;;;;;;13.50;2.30;;;;;;;-144.47;55.77;53336.78;4985428;28;20035;-69
2022/05/29 06:27:52;;;;;;;23.15;3.38;;;;;;;-144.47;55.84;53352.66;4996092;28;20441;-69
2022/05/29 06:30:17;;;;;;;11.30;2.60;;;;;;;-144.47;55.30;53352.66;4990655;28;20026;-69
2022/05/29 06:32:43;;;;;;;13.75;2.92;;;;;;;-144.47;54.78;53340.75;4991898;28;20030;-68
2022/05/29 06:35:10;;;;;;;16.83;2.50;;;;;;;-144.47;54.22;53358.63;4997787;28;20535;-69
2022/05/29 06:37:37;;;;;;;17.00;2.55;;;;;;;-144.47;54.05;53306.97;4990492;28;20042;-68
2022/05/29 06:40:03;;;;;;;10.88;2.45;;;;;;;-144.47;53.48;53338.75;4982184;28;20026;-70
2022/05/29 06:42:29;;;;;;;15.77;2.45;;;;;;;-144.47;53.99;53354.66;5018732;28;20056;-70
2022/05/29 06:44:54;;;;;;;9.93;2.25;;;;;;;-144.47;54.02;53358.63;4980825;28;20054;-69
2022/05/29 06:47:19;;;;;;;16.85;2.50;;;;;;;-144.47;54.09;53362.59;4992260;28;20619;-70
2022/05/29 06:49:49;;;;;;;11.20;2.33;;;;;;;-144.47;53.82;53348.69;4985498;28;20178;-68
2022/05/29 06:52:15;;;;;;;18.83;2.63;;;;;;;-144.47;53.37;53356.63;4986306;28;20022;-70
2022/05/29 06:54:41;;;;;;;26.48;3.22;;;;;;;-144.47;53.25;53336.78;5008326;28;20613;-67
2022/05/29 06:57:07;;;;;;;11.20;2.75;;;;;;;-144.47;52.83;53318.91;4999963;28;20040;-67
2022/05/29 07:06:58;;;;;;;22.45;4.38;;;;;;;-144.47;52.85;53305.00;4988799;28;20110;-72
2022/05/29 07:07:51;;;;;;;7.00;2.40;;;;;;;-144.47;52.87;53356.63;4988781;28;20037;-69
2022/05/29 07:10:16;;;;;;;14.00;2.47;;;;;;;-144.47;52.20;53356.63;4992927;28;20022;-70
2022/05/29 07:12:42;;;;;;;19.67;3.85;;;;;;;-144.47;51.67;53316.91;4990723;28;20034;-70
2022/05/29 07:15:08;;;;;;;13.27;3.03;;;;;;;-144.47;51.07;53324.84;4989541;28;20442;-69
2022/05/29 07:17:34;;;;;;;19.30;3.42;;;;;;;-144.47;50.97;53336.78;4987423;28;20465;-67
2022/05/29 07:19:59;;;;;;;18.88;2.58;;;;;;;-144.47;51.54;53334.78;4983403;28;20032;-66
2022/05/29 07:22:26;;;;;;;26.42;3.20;;;;;;;-144.47;51.14;53301.03;4985877;28;20429;-71
2022/05/29 07:24:52;;;;;;;10.65;2.20;;;;;;;-144.47;51.76;53322.88;4990807;28;20030;-70
2022/05/29 07:27:17;;;;;;;18.25;3.08;;;;;;;-144.47;52.13;53334.78;4987241;28;20031;-70
2022/05/29 07:29:42;;;;;;;17.00;3.53;;;;;;;-144.47;53.02;53342.72;4989374;28;20045;-69
2022/05/29 07:32:09;;;;;;;9.88;2.90;;;;;;;-144.47;53.98;53340.75;4987637;28;20076;-69
2022/05/29 07:34:35;;;;;;;19.63;4.38;;;;;;;-144.47;54.89;53358.63;4988515;28;20026;-69
2022/05/29 07:37:08;;;;;;;9.52;2.97;;;;;;;-144.47;55.23;53352.66;4995885;28;20026;-69
2022/05/29 07:39:39;;;;;;;14.30;3.03;;;;;;;-144.47;55.01;53326.84;4985953;28;20030;-68
2022/05/29 07:44:52;;;;;;;12.85;3.20;;;;;;;-144.47;53.79;53368.56;4987831;28;20156;-69
2022/05/29 07:47:18;;;;;;;11.20;2.97;;;;;;;-144.47;52.81;53344.72;4985516;28;20102;-67
2022/05/29 07:49:43;;;;;;;23.08;2.83;;;;;;;-144.47;51.74;53308.97;4993131;28;20041;-69
2022/05/29 07:52:08;;;;;;;19.13;2.90;;;;;;;-144.47;50.45;53328.81;4992398;28;20549;-69
2022/05/29 07:54:34;;;;;;;16.77;3.20;;;;;;;-144.47;50.27;53297.03;4994363;28;20031;-70
2022/05/29 07:56:59;;;;;;;13.75;2.63;;;;;;;-144.47;50.61;53299.03;4992610;28;20402;-68
2022/05/29 07:59:25;;;;;;;14.45;3.00;;;;;;;-144.47;50.38;53344.72;4987933;28;20031;-70
2022/05/29 08:01:50;;;;;;;16.90;3.10;;;;;;;-144.47;50.52;53308.97;4986598;28;20035;-68
2022/05/29 08:04:16;;;;;;;13.82;3.05;;;;;;;-144.47;50.12;53316.91;4991569;28;20030;-68
2022/05/29 08:06:41;;;;;;;15.05;2.70;;;;;;;-144.47;50.06;53297.03;4988812;28;20536;-67
2022/05/29 08:09:07;;;;;;;23.63;3.70;;;;;;;-144.47;50.25;53342.72;4995026;28;20041;-67
2022/05/29 08:11:33;;;;;;;12.65;2.30;;;;;;;-144.47;49.78;53338.75;4987317;28;20022;-69
2022/05/29 08:14:00;;;;;;;17.98;3.20;;;;;;;-144.47;50.32;53340.75;4990703;28;20030;-68
2022/05/29 08:16:25;;;;;;;16.65;3.28;;;;;;;-144.47;50.44;53316.91;4996202;28;20026;-68
2022/05/29 08:18:53;;;;;;;15.65;3.20;;;;;;;-144.47;50.70;53380.47;4992398;28;20041;-67
2022/05/29 08:21:18;;;;;;;19.25;3.17;;;;;;;-144.47;51.15;53338.75;4991004;28;20030;-68
2022/05/29 08:30:37;;;;;;;21.80;3.25;;;;;;;-144.47;51.27;53330.81;5000378;28;20089;-69
2022/05/29 08:31:57;;;;;;;12.95;2.42;;;;;;;-144.47;48.70;53326.84;4994027;28;20032;-68
2022/05/29 08:34:22;;;;;;;16.48;2.50;;;;;;;-144.47;49.13;53316.91;4982725;28;20034;-68
2022/05/29 08:36:47;;;;;;;14.85;3.05;;;;;;;-144.47;49.24;53322.88;4984232;28;20088;-70
2022/05/29 08:39:15;;;;;;;14.35;4.60;;;;;;;-144.47;49.25;53348.69;4983693;28;20029;-68
2022/05/29 08:41:46;;;;;;;16.08;2.45;;;;;;;-144.47;47.96;53326.84;4984597;28;20038;-69
2022/05/29 08:44:52;;;;;;;8.85;1.98;;;;;;;-144.47;48.41;53297.03;4982835;28;20651;-70
2022/05/29 08:47:25;;;;;;;19.75;2.58;;;;;;;-144.47;48.30;53324.84;4943695;28;20030;-68
2022/05/29 08:49:50;;;;;;;12.00;2.75;;;;;;;-144.47;47.82;53263.28;4983824;28;20398;-68
2022/05/29 08:52:40;;;;;;;14.20;2.92;;;;;;;-144.47;46.92;53306.97;4984668;28;20026;-69
2022/05/29 08:55:10;;;;;;;10.75;2.50;;;;;;;-144.47;46.73;53283.13;4985346;28;20061;-71
2022/05/29 08:57:41;;;;;;;18.98;3.45;;;;;;;-144.47;46.45;53328.81;4985639;28;21154;-69
2022/05/29 09:00:14;;;;;;;20.70;2.67;;;;;;;-144.47;46.81;53330.81;4984897;28;20026;-71
2022/05/29 09:03:17;;;;;;;26.58;3.42;;;;;;;-144.47;47.02;53318.91;4981216;28;20050;-70
2022/05/29 09:06:06;;;;;;;9.35;2.05;;;;;;;-144.47;46.53;53299.03;4982472;28;20509;-70
2022/05/29 09:08:38;;;;;;;5.85;2.10;;;;;;;-144.47;47.02;53312.94;4985888;28;20037;-70
2022/05/29 09:11:16;;;;;;;4.72;2.45;;;;;;;-144.47;45.92;53308.97;4985254;28;20107;-71
2022/05/29 09:13:54;;;;;;;11.48;2.72;;;;;;;-144.47;46.00;53332.81;4983329;28;21335;-70
2022/05/29 09:16:23;;;;;;;11.55;1.90;;;;;;;-144.47;46.51;53301.03;4986550;28;20048;-70
2022/05/29 09:19:28;;;;;;;8.48;1.90;;;;;;;-144.47;45.25;53342.72;4985842;28;20026;-70
2022/05/29 09:21:58;;;;;;;11.85;1.95;;;;;;;-144.47;45.50;53277.19;4985603;28;20057;-71
2022/05/29 09:25:06;;;;;;;7.03;1.95;;;;;;;-144.47;45.48;53305.00;4984963;28;20078;-70
2022/05/29 09:27:34;;;;;;;15.53;2.33;;;;;;;-144.47;45.84;53297.03;4978240;28;20117;-69
2022/05/29 09:29:59;;;;;;;6.72;1.63;;;;;;;-144.47;45.80;53297.03;4985881;28;20034;-70
2022/05/29 09:32:31;;;;;;;10.23;1.80;;;;;;;-144.47;45.48;53263.28;4984135;28;20508;-70
2022/05/29 09:35:20;;;;;;;5.82;1.23;;;;;;;-144.47;44.16;53263.28;4984115;28;20026;-69
2022/05/29 09:37:58;;;;;;;5.75;1.60;;;;;;;-144.47;43.61;53269.22;4984538;28;20524;-71
2022/05/29 09:40:30;;;;;;;8.05;2.65;;;;;;;-144.47;41.26;53301.03;4983966;28;20042;-70
2022/05/29 09:42:57;;;;;;;9.15;1.83;;;;;;;-144.47;41.33;53285.13;4983350;28;20050;-70
2022/05/29 09:45:27;;;;;;;4.60;1.13;;;;;;;-144.47;41.79;53305.00;4983784;28;20018;-71
2022/05/29 09:50:51;;;;;;;10.20;1.58;;;;;;;-144.47;41.77;53261.28;4985032;28;21358;-70
2022/05/29 09:53:27;;;;;;;6.88;1.50;;;;;;;-144.47;41.48;53277.19;4985528;28;20034;-70
2022/05/29 09:55:58;;;;;;;9.02;1.92;;;;;;;-144.47;41.36;53239.44;4983133;28;20461;-69
2022/05/29 09:58:47;;;;;;;10.40;1.83;;;;;;;-144.47;41.19;53291.09;4984574;28;20073;-68
2022/05/29 10:01:27;;;;;;;7.32;1.58;;;;;;;-144.47;41.84;53285.13;4983867;28;20030;-72
2022/05/29 10:03:55;;;;;;;13.55;2.05;;;;;;;-144.47;41.40;53285.13;5005457;28;20445;-71
2022/05/29 10:06:41;;;;;;;13.20;2.42;;;;;;;-144.47;41.55;53261.28;4984373;28;20125;-70
2022/05/29 10:09:19;;;;;;;10.60;2.33;;;;;;;-144.47;42.37;53275.19;4985063;28;20041;-69
2022/05/29 10:11:47;;;;;;;10.45;2.42;;;;;;;-144.47;42.47;53305.00;4983442;28;20049;-72
2022/05/29 10:14:30;;;;;;;14.35;2.55;;;;;;;-144.47;42.73;53297.03;4981987;28;20064;-70
2022/05/29 10:16:56;;;;;;;13.05;1.90;;;;;;;-144.47;43.14;53275.19;4985963;28;20034;-70
2022/05/29 10:19:50;;;;;;;9.10;1.80;;;;;;;-144.47;42.95;53263.28;4984929;28;20448;-69
2022/05/29 10:22:36;;;;;;;8.73;1.75;;;;;;;-144.47;42.59;53277.19;4969686;28;20517;-70
2022/05/29 10:27:51;;;;;;;12.80;2.45;;;;;;;-144.47;43.02;53287.13;5000186;28;20061;-67
2022/05/29 10:30:38;;;;;;;8.35;2.13;;;;;;;-144.47;42.28;53281.16;5002783;28;20109;-64
2022/05/29 10:33:10;;;;;;;10.70;2.05;;;;;;;-144.47;42.89;53273.22;5001867;28;20029;-67
2022/05/29 10:35:38;;;;;;;9.68;1.75;;;;;;;-144.47;41.88;53263.28;5003512;28;20038;-68
2022/05/29 10:38:18;;;;;;;7.32;2.03;;;;;;;-144.47;41.90;53275.19;5001329;28;20034;-66
2022/05/29 10:40:47;;;;;;;10.95;1.95;;;;;;;-144.47;42.33;53306.97;5003388;28;20034;-66
2022/05/29 10:43:34;;;;;;;9.30;2.05;;;;;;;-144.47;41.61;53281.16;5001523;28;20448;-66
2022/05/29 10:46:43;;;;;;;6.68;1.92;;;;;;;-144.47;39.66;53257.31;5001891;28;20033;-64
2022/05/29 10:49:37;;;;;;;5.75;1.30;;;;;;;-144.47;39.86;53253.34;5002756;28;20018;-66
2022/05/29 10:52:28;;;;;;;7.28;1.63;;;;;;;-144.47;39.74;53322.88;5002774;28;20783;-65
2022/05/29 10:55:06;;;;;;;15.82;1.88;;;;;;;-144.47;39.96;53277.19;5002627;28;20029;-65
2022/05/29 10:58:10;;;;;;;6.55;1.75;;;;;;;-144.47;39.44;53227.53;5001876;28;20060;-68
2022/05/29 11:03:17;;;;;;;11.98;1.88;;;;;;;-144.47;39.81;53251.34;5000864;28;20069;-65
2022/05/29 11:04:17;;;;;;;8.68;1.83;;;;;;;-144.47;39.79;53293.06;5000085;28;20038;-65
2022/05/29 11:06:57;;;;;;;6.80;1.77;;;;;;;-144.47;40.10;53251.34;5003748;28;20037;-65
2022/05/29 11:09:52;;;;;;;13.00;2.33;;;;;;;-144.47;39.85;53312.94;5002042;28;20068;-65
2022/05/29 11:12:43;;;;;;;12.23;2.20;;;;;;;-144.47;39.81;53279.16;5000619;28;20429;-64
2022/05/29 11:15:08;;;;;;;12.32;1.92;;;;;;;-144.47;39.53;53239.44;5002680;28;20033;-66
2022/05/29 11:17:52;;;;;;;10.65;1.65;;;;;;;-144.47;39.14;53267.25;5000752;28;20042;-64
2022/05/29 11:20:42;;;;;;;5.80;1.75;;;;;;;-144.47;39.62;53263.28;4999920;28;20021;-65
2022/05/29 11:23:30;;;;;;;6.88;1.90;;;;;;;-144.47;39.62;53249.38;4999979;28;20025;-63
2022/05/29 11:26:08;;;;;;;5.97;1.60;;;;;;;-144.47;38.74;53257.31;5000226;28;20062;-66
2022/05/29 11:29:01;;;;;;;8.35;1.88;;;;;;;-144.47;38.87;53249.38;5003095;28;20061;-66
2022/05/29 11:31:55;;;;;;;6.07;1.50;;;;;;;-144.47;38.65;53277.19;5003064;28;20602;-63
2022/05/29 11:34:35;;;;;;;13.00;1.90;;;;;;;-144.47;38.09;53295.06;5000809;28;20044;-62
2022/05/29 11:37:20;;;;;;;6.03;1.73;;;;;;;-144.47;38.66;53237.44;5001844;28;20034;-65
2022/05/29 11:39:54;;;;;;;13.30;2.28;;;;;;;-144.47;39.77;53249.38;5000485;28;20030;-64
2022/05/29 11:42:25;;;;;;;11.63;2.08;;;;;;;-144.47;39.75;53281.16;5001972;28;20032;-64
2022/05/29 11:45:00;;;;;;;8.98;1.95;;;;;;;-144.47;39.44;53275.19;5002012;28;20118;-66
2022/05/29 11:53:30;;;;;;;8.45;1.80;;;;;;;-144.47;37.38;53281.16;5000352;28;20093;-64
2022/05/29 11:55:58;;;;;;;14.35;1.98;;;;;;;-144.47;37.37;53269.22;4999946;28;20038;-63
2022/05/29 11:58:38;;;;;;;9.25;1.70;;;;;;;-144.47;36.97;53267.25;5001194;28;20720;-64
2022/05/29 12:01:06;;;;;;;8.43;2.10;;;;;;;-144.47;37.80;53261.28;5001760;28;20104;-66
2022/05/29 12:03:34;;;;;;;13.10;1.95;;;;;;;-144.47;38.42;53227.53;4997182;28;20104;-67
2022/05/29 12:06:15;;;;;;;8.68;1.67;;;;;;;-144.47;37.62;53279.16;5001691;28;20100;-64
2022/05/29 12:08:52;;;;;;;3.95;1.70;;;;;;;-144.47;37.42;53259.31;5001909;28;20034;-67
2022/05/29 12:11:36;;;;;;;9.00;1.50;;;;;;;-144.47;37.05;53231.50;5000201;28;20053;-65